Latest Weather Observations for Sydney - Observatory Hill

IDN60801

Issued at 8:35 pm EST Wednesday 20 August 2014 (issued every 30 minutes, with the page automatically refreshed every 10 minutes)

About weather observations | Map of weather stations | Latest weather observations for NSW | Other Formats
Station Details ID: 066062 Name: SYDNEY (OBSERVATORY HILL) Lat: -33.86 Lon: 151.21 Height: 39.0 m
Data from the previous 72 hours. | See also: Recent months at Sydney - Observatory Hill

* Apparent temperature (App Temp) for Sydney - Observatory Hill is calculated using temperature observations collected at Sydney - Observatory Hill and wind observations collected at Fort Denison, as wind observations are not currently provided for Sydney - Observatory Hill.

Date/Time
EST
Temp
°C
App
Temp
°C
Dew
Point
Rel
Hum
%
Delta-T
°C
Wind Press
QNH
hPa
Press
MSL
hPa
Rain
since 9 am
mm
Dir
 
Spd
km/h
Gust
km/h
Spd
kts
Gust
kts
20/08:30pm 13.9 11.2 7.2 64 3.3 - 11 - 6 - 1026.8 - 0.0
20/08:00pm 13.7 10.7 7.5 66 3.0 - 13 - 7 - 1026.5 1026.5 0.0
20/07:30pm 13.3 10.5 7.1 66 3.0 - 11 - 6 - 1026.5 - 0.0
20/07:00pm 13.7 11.0 7.2 65 3.2 - 11 - 6 - 1026.2 1026.2 0.0
20/06:30pm 14.4 11.3 7.2 62 3.5 - 13 - 7 - 1026.0 - 0.0
20/06:00pm 14.5 11.4 7.1 61 3.6 - 13 - 7 - 1025.7 1025.7 0.0
20/05:30pm 14.6 10.7 6.9 60 3.8 - 17 - 9 - 1025.4 - 0.0
20/05:00pm 14.6 10.2 6.7 59 3.8 - 19 - 10 - 1025.1 1025.1 0.0
20/04:30pm 14.8 10.4 6.6 58 4.0 - 19 - 10 - 1024.8 - 0.0
20/04:00pm 15.1 10.8 6.9 58 4.0 - 19 - 10 - 1024.7 1024.7 0.0
20/03:30pm 15.3 10.4 6.8 57 4.2 - 22 - 12 - 1024.6 - 0.0
20/03:00pm 15.7 10.7 6.4 54 4.5 - 22 - 12 - 1024.5 1024.5 0.0
20/02:30pm 16.8 11.1 6.6 51 5.0 - 26 - 14 - 1024.3 - 0.0
20/02:00pm 16.0 10.9 6.2 52 4.7 - 22 - 12 - 1024.2 1024.2 0.0
20/01:30pm 15.8 10.1 6.8 55 4.4 - 26 - 14 - 1024.4 - 0.0
20/01:00pm 14.6 9.3 6.7 59 3.8 - 24 - 13 - 1024.6 1024.6 0.0
20/12:30pm 15.5 10.6 6.8 56 4.3 - 22 - 12 - 1024.8 - 0.0
20/12:00pm 14.9 10.0 6.7 58 4.0 - 22 - 12 - 1025.0 1025.0 0.0
20/11:30am 14.1 9.3 7.2 63 3.4 - 22 - 12 - 1025.2 - 0.0
20/11:00am 13.9 9.3 6.3 60 3.6 - 20 - 11 - 1025.4 1025.4 0.0
20/10:30am 14.1 8.7 6.5 60 3.7 - 24 - 13 - 1025.2 - 0.0
20/10:00am 14.0 9.1 7.1 63 3.3 - 22 - 12 - 1025.0 1025.0 0.0
20/09:30am 13.2 9.8 7.6 69 2.7 - 15 - 8 - 1025.0 - 0.0
20/09:00am 12.5 7.6 6.8 68 2.7 - 22 - 12 - 1024.7 1024.7 8.2
20/08:30am 12.6 7.6 6.6 67 2.9 - 22 - 12 - 1024.7 - 8.2
20/08:00am 11.1 5.6 5.8 70 2.4 - 24 - 13 - 1024.5 1024.5 8.2
20/07:30am 11.4 5.3 6.5 72 2.3 - 28 - 15 - 1024.3 - 8.2
20/07:00am 10.5 4.6 5.9 73 2.1 - 26 - 14 - 1024.0 1024.0 8.2
20/06:30am 10.7 5.1 5.5 70 2.4 - 24 - 13 - 1023.5 - 8.2
20/06:00am 10.4 4.8 5.4 71 2.3 - 24 - 13 - 1023.1 1023.1 8.2
20/05:30am 10.2 4.5 5.0 70 2.4 - 24 - 13 - 1022.8 - 8.2
20/05:00am 10.1 4.5 5.3 72 2.2 - 24 - 13 - 1022.6 1022.6 8.2
20/04:30am 9.9 3.8 4.7 70 2.3 - 26 - 14 - 1022.3 - 8.2
20/04:00am 9.8 3.7 4.6 70 2.3 - 26 - 14 - 1022.1 1022.1 8.2
20/03:30am 9.9 4.3 5.3 73 2.1 - 24 - 13 - 1021.8 - 8.2
20/03:00am 9.7 4.0 5.1 73 2.1 - 24 - 13 - 1021.7 1021.7 8.2
20/02:30am 9.6 3.9 5.0 73 2.1 - 24 - 13 - 1021.5 - 8.2
20/02:00am 10.1 4.8 5.1 71 2.3 - 22 - 12 - 1021.7 1021.7 8.2
20/01:30am 10.7 5.5 5.3 69 2.5 - 22 - 12 - 1021.6 - 8.2
20/01:00am 11.8 6.7 6.1 68 2.7 - 22 - 12 - 1021.5 1021.5 8.2
20/12:30am 12.1 7.0 5.9 66 2.9 - 22 - 12 - 1021.4 - 8.2
20/12:00am 12.5 7.8 5.9 64 3.1 - 20 - 11 - 1021.3 1021.3 8.2
 
Date/Time
EST
Temp
°C
App
Temp
°C
Dew
Point
Rel
Hum
%
Delta-T
°C
Wind Press
QNH
hPa
Press
MSL
hPa
Rain
since 9 am
mm
Dir
 
Spd
km/h
Gust
km/h
Spd
kts
Gust
kts
19/11:30pm 12.8 8.7 6.4 65 3.1 - 17 - 9 - 1021.3 - 8.2
19/11:00pm 13.1 8.2 6.9 66 3.0 - 22 - 12 - 1021.3 1021.3 8.2
19/10:30pm 13.2 8.3 6.8 65 3.1 - 22 - 12 - 1020.9 - 8.2
19/10:00pm 13.2 8.0 7.2 67 2.9 - 24 - 13 - 1021.1 1021.1 8.2
19/09:30pm 13.2 8.5 7.6 69 2.7 - 22 - 12 - 1021.0 - 8.2
19/09:00pm 13.2 8.8 7.6 69 2.7 - 20 - 11 - 1020.7 1020.7 8.2
19/08:30pm 13.3 8.7 8.2 71 2.5 - 22 - 12 - 1020.7 - 8.2
19/08:00pm 13.2 7.7 7.4 68 2.8 - 26 - 14 - 1020.4 1020.4 8.2
19/07:30pm 12.8 7.3 9.1 78 1.9 - 28 - 15 - 1020.2 - 8.2
19/07:00pm 12.4 8.9 10.3 87 1.1 - 19 - 10 - 1020.0 1020.0 8.2
19/06:30pm 12.5 8.1 10.4 87 1.1 - 24 - 13 - 1019.5 - 8.0
19/06:00pm 12.6 8.3 10.7 88 1.0 - 24 - 13 - 1019.0 1019.0 7.2
19/05:30pm 12.7 8.3 10.4 86 1.2 - 24 - 13 - 1018.6 - 5.4
19/05:00pm 12.7 7.9 10.4 86 1.2 - 26 - 14 - 1017.9 1017.9 4.2
19/04:30pm 13.2 9.0 11.1 87 1.1 - 24 - 13 - 1017.9 - 4.2
19/04:00pm 13.4 8.7 10.8 84 1.4 - 26 - 14 - 1017.5 1017.5 4.0
19/03:30pm 14.0 9.8 11.0 82 1.6 - 24 - 13 - 1016.9 - 2.8
19/03:00pm 14.5 9.9 11.1 80 1.8 - 26 - 14 - 1016.6 1016.6 2.4
19/02:30pm 14.6 11.8 11.2 80 1.8 - 17 - 9 - 1016.3 - 2.4
19/02:00pm 14.1 9.0 10.5 79 1.9 - 28 - 15 - 1016.1 1016.1 2.4
19/01:30pm 15.5 11.2 10.7 73 2.5 - 24 - 13 - 1015.7 - 2.0
19/01:00pm 15.2 11.1 11.4 78 2.0 - 24 - 13 - 1015.5 1015.5 2.0
19/12:30pm 14.1 10.9 11.3 83 1.5 - 19 - 10 - 1015.7 - 2.0
19/12:00pm 14.6 8.7 10.6 77 2.1 - 32 - 17 - 1015.9 1015.9 1.0
19/11:30am 17.1 12.1 10.9 67 3.3 - 28 - 15 - 1015.6 - 0.0
19/11:00am 16.4 11.4 10.9 70 2.9 - 28 - 15 - 1015.7 1015.7 0.0
19/10:30am 15.3 11.7 10.5 73 2.5 - 20 - 11 - 1015.6 - 0.0
19/10:00am 14.8 9.7 10.6 76 2.2 - 28 - 15 - 1015.4 1015.4 0.0
19/09:30am 14.7 8.8 10.5 76 2.2 - 32 - 17 - 1015.3 - 0.0
19/09:00am 15.5 10.2 9.8 69 3.0 - 28 - 15 - 1015.3 1015.3 38.4
19/08:30am 14.6 11.3 10.8 78 2.0 - 19 - 10 - 1015.0 - 38.4
19/08:00am 14.7 11.8 11.1 79 1.9 - 17 - 9 - 1014.5 1014.5 38.2
19/07:30am 14.4 10.1 10.8 79 1.9 - 24 - 13 - 1014.0 - 38.2
19/07:00am 13.5 10.3 11.2 86 1.2 - 19 - 10 - 1013.6 1013.6 38.2
19/06:30am 13.8 9.6 11.1 84 1.4 - 24 - 13 - 1013.4 - 37.8
19/06:00am 13.5 9.8 11.4 87 1.1 - 22 - 12 - 1013.0 1013.0 37.2
19/05:30am 13.8 9.8 11.7 87 1.1 - 24 - 13 - 1012.8 - 36.8
19/05:00am 13.5 10.2 11.6 88 1.0 - 20 - 11 - 1012.2 1012.2 35.4
19/04:30am 13.6 9.6 11.7 88 1.0 - 24 - 13 - 1011.7 - 35.2
19/04:00am 13.3 9.7 11.7 90 0.9 - 22 - 12 - 1011.3 1011.3 35.2
19/03:30am 13.4 9.5 12.0 91 0.8 - 24 - 13 - 1011.3 - 34.4
19/03:00am 13.5 9.6 12.1 91 0.8 - 24 - 13 - 1011.1 1011.1 33.6
19/02:30am 13.7 10.5 11.9 89 1.0 - 20 - 11 - 1010.6 - 30.4
19/02:00am 14.2 10.4 12.4 89 1.0 - 24 - 13 - 1010.4 1010.4 28.0
19/01:30am 14.2 10.7 12.2 88 1.1 - 22 - 12 - 1010.4 - 27.2
19/01:00am 14.4 11.5 12.8 90 0.9 - 20 - 11 - 1010.1 1010.1 27.2
19/12:30am 14.3 11.3 12.7 90 0.9 - 20 - 11 - 1009.9 - 26.4
19/12:00am 14.4 10.0 13.0 91 0.8 - 28 - 15 - 1009.7 1009.7 25.8
 
Date/Time
EST
Temp
°C
App
Temp
°C
Dew
Point
Rel
Hum
%
Delta-T
°C
Wind Press
QNH
hPa
Press
MSL
hPa
Rain
since 9 am
mm
Dir
 
Spd
km/h
Gust
km/h
Spd
kts
Gust
kts
18/11:30pm 14.2 11.8 12.8 91 0.8 - 17 - 9 - 1009.6 - 23.4
18/11:00pm 14.1 11.2 12.3 89 1.0 - 19 - 10 - 1009.6 1009.6 20.2
18/10:30pm 14.6 11.9 13.0 90 0.9 - 19 - 10 - 1009.3 - 20.0
18/10:00pm 14.3 11.5 12.7 90 0.9 - 19 - 10 - 1008.9 1008.9 19.8
18/09:30pm 14.6 11.0 13.1 91 0.8 - 24 - 13 - 1008.7 - 19.2
18/09:00pm 14.4 11.6 13.1 92 0.7 - 20 - 11 - 1008.4 1008.4 19.2
18/08:30pm 12.8 10.0 11.4 91 0.7 - 17 - 9 - 1008.3 - 18.0
18/08:00pm 13.4 10.3 12.1 92 0.7 - 20 - 11 - 1007.8 1007.8 17.0
18/07:30pm 13.3 9.7 12.0 92 0.7 - 22 - 12 - 1007.5 - 16.6
18/07:00pm 12.9 8.4 11.5 91 0.7 - 26 - 14 - 1007.1 1007.1 16.6
18/06:30pm 12.9 9.6 11.5 91 0.7 - 20 - 11 - 1006.9 - 16.2
18/06:00pm 13.0 9.3 11.4 90 0.9 - 22 - 12 - 1006.4 1006.4 15.2
18/05:30pm 13.2 8.7 11.4 89 1.0 - 26 - 14 - 1006.1 - 15.0
18/05:00pm 13.2 9.1 11.4 89 1.0 - 24 - 13 - 1005.7 1005.7 14.6
18/04:30pm 13.1 9.0 11.3 89 1.0 - 24 - 13 - 1005.4 - 14.6
18/04:00pm 13.2 8.3 11.4 89 1.0 - 28 - 15 - 1005.3 1005.3 14.6
18/03:30pm 13.2 8.1 11.8 91 0.7 - 30 - 16 - 1005.1 - 14.4
18/03:00pm 13.3 8.5 11.7 90 0.9 - 28 - 15 - 1005.0 1005.0 14.2
18/02:30pm 13.5 8.0 11.9 90 0.9 - 32 - 17 - 1004.9 - 14.0
18/02:00pm 13.9 8.8 11.9 88 1.1 - 30 - 16 - 1004.7 1004.7 13.2
18/01:30pm 14.1 9.0 12.0 87 1.1 - 30 - 16 - 1004.6 - 12.6
18/01:00pm 13.9 8.8 11.9 88 1.1 - 30 - 16 - 1004.6 1004.6 12.4
18/12:30pm 13.7 9.4 11.9 89 1.0 - 26 - 14 - 1004.6 - 11.6
18/12:00pm 13.7 9.0 11.9 89 1.0 - 28 - 15 - 1004.5 1004.5 11.2
18/11:30am 13.7 8.1 12.1 90 0.9 - 33 - 18 - 1004.5 - 10.2
18/11:00am 13.9 7.2 12.3 90 0.9 - 39 - 21 - 1004.3 1004.3 7.4
18/10:30am 13.6 10.9 11.8 89 1.0 - 17 - 9 - 1004.3 - 3.6
18/10:00am 14.3 10.6 12.7 90 0.9 - 24 - 13 - 1003.5 1003.5 0.6
18/09:30am 14.1 8.7 12.8 92 0.7 - 33 - 18 - 1002.1 - 0.6
18/09:00am 13.8 8.6 12.9 94 0.5 - 32 - 17 - 1001.8 1001.8 21.8
18/08:30am 11.3 5.7 10.2 93 0.6 - 30 - 16 - 1002.4 - 21.6
18/08:00am 11.4 7.7 10.1 92 0.7 - 20 - 11 - 1003.0 1003.0 13.4
18/07:30am 11.5 7.8 10.1 91 0.7 - 20 - 11 - 1003.3 - 9.4
18/07:00am 11.5 8.3 10.1 91 0.7 - 17 - 9 - 1003.4 1003.4 6.8
18/06:30am 11.5 9.1 9.9 90 0.8 - 13 - 7 - 1002.8 - 5.2
18/06:00am 11.6 8.8 10.0 90 0.8 - 15 - 8 - 1002.8 1002.8 5.2
18/05:30am 11.6 9.1 9.7 88 1.0 - 13 - 7 - 1002.0 - 5.2
18/05:00am 11.7 9.9 9.6 87 1.1 - 9 - 5 - 1001.6 1001.6 5.0
18/04:30am 11.9 9.0 9.8 87 1.1 - 15 - 8 - 1001.1 - 5.0
18/04:00am 11.9 9.5 10.0 88 1.0 - 13 - 7 - 1000.8 1000.8 5.0
18/03:30am 11.6 8.4 9.9 89 0.9 - 17 - 9 - 1000.7 - 5.0
18/03:00am 11.5 7.3 9.8 89 0.9 - 22 - 12 - 1000.9 1000.9 5.0
18/02:30am 11.7 7.1 9.8 88 1.0 - 24 - 13 - 1001.5 - 5.0
18/02:00am 12.2 8.2 9.0 81 1.6 - 20 - 11 - 1002.1 1002.1 4.8
18/01:30am 12.3 7.9 8.8 79 1.7 - 22 - 12 - 1002.4 - 4.8
18/01:00am 12.4 8.8 8.5 77 1.9 - 17 - 9 - 1002.8 1002.8 4.8
18/12:30am 12.4 9.3 8.7 78 1.8 - 15 - 8 - 1003.0 - 4.8
18/12:00am 11.5 8.3 8.5 82 1.5 - 15 - 8 - 1003.2 1003.2 4.8
 
Date/Time
EST
Temp
°C
App
Temp
°C
Dew
Point
Rel
Hum
%
Delta-T
°C
Wind Press
QNH
hPa
Press
MSL
hPa
Rain
since 9 am
mm
Dir
 
Spd
km/h
Gust
km/h
Spd
kts
Gust
kts
17/11:30pm 11.0 7.8 8.4 84 1.3 - 15 - 8 - 1003.4 - 4.8
17/11:00pm 11.3 9.4 8.9 85 1.2 - 9 - 5 - 1003.8 1003.8 4.8
17/10:30pm 11.7 10.4 9.1 84 1.3 - 6 - 3 - 1004.1 - 4.8
17/10:00pm 12.4 10.5 9.1 80 1.7 - 9 - 5 - 1004.4 1004.4 4.8
17/09:30pm 12.7 10.9 9.3 80 1.7 - 9 - 5 - 1004.7 - 4.8
17/09:00pm 12.8 10.6 9.4 80 1.7 - 11 - 6 - 1005.1 1005.1 4.8

Other Formats:

Comma delimited format used in spreadsheet applications
http://www.bom.gov.au/fwo/IDN60801/IDN60801.94768.axf

JavaScript Object Notation format (JSON) in row-major order
http://www.bom.gov.au/fwo/IDN60801/IDN60801.94768.json